Time;durP1;ratioP1;P1;durP2;ratioP2;P2;SDS_P1;SDS_P2;PMS_P1;PMS_P2;Temp;Humidity;BMP_temperature;BMP_pressure;BME280_temperature;BME280_humidity;BME280_pressure;Samples;Min_cycle;Max_cycle;Signal;HPM_P1;HPM_P2
2022/11/15 00:01:00;;;;;;;36.70;18.87;;;;;;;;;;5056915;28;20017;-40
2022/11/15 00:03:26;;;;;;;37.88;19.73;;;;;;;;;;5056810;28;20313;-40
2022/11/15 00:05:52;;;;;;;35.67;19.42;;;;;;;;;;5056458;28;20021;-42
2022/11/15 00:08:17;;;;;;;38.03;20.23;;;;;;;;;;5057081;28;20028;-42
2022/11/15 00:10:43;;;;;;;47.28;20.27;;;;;;;;;;5056499;28;20031;-42
2022/11/15 00:13:09;;;;;;;37.17;19.42;;;;;;;;;;5056913;28;20104;-43
2022/11/15 00:15:35;;;;;;;33.35;19.27;;;;;;;;;;5056806;28;20460;-41
2022/11/15 00:18:01;;;;;;;52.58;20.77;;;;;;;;;;5056607;28;20021;-42
2022/11/15 00:20:26;;;;;;;33.75;18.17;;;;;;;;;;5056442;28;20032;-42
2022/11/15 00:22:51;;;;;;;34.90;18.60;;;;;;;;;;5056277;28;20104;-42
2022/11/15 00:25:16;;;;;;;43.40;19.63;;;;;;;;;;5055568;28;20113;-42
2022/11/15 00:27:42;;;;;;;45.40;20.42;;;;;;;;;;5056494;28;20028;-42
2022/11/15 00:30:07;;;;;;;35.40;18.15;;;;;;;;;;5056512;28;20395;-41
2022/11/15 00:32:33;;;;;;;43.45;21.52;;;;;;;;;;5055491;28;20460;-37
2022/11/15 00:34:58;;;;;;;41.88;21.40;;;;;;;;;;5055647;28;20387;-42
2022/11/15 00:37:23;;;;;;;35.05;19.88;;;;;;;;;;5056005;28;20147;-43
2022/11/15 00:39:49;;;;;;;38.45;19.35;;;;;;;;;;5055658;28;20024;-41
2022/11/15 00:42:14;;;;;;;38.92;19.77;;;;;;;;;;5056026;28;20021;-42
2022/11/15 00:44:39;;;;;;;35.95;18.73;;;;;;;;;;5055848;28;20033;-42
2022/11/15 00:47:05;;;;;;;34.40;19.35;;;;;;;;;;5056078;28;20049;-42
2022/11/15 00:49:30;;;;;;;52.72;20.83;;;;;;;;;;5055875;28;20021;-41
2022/11/15 00:51:55;;;;;;;35.95;19.95;;;;;;;;;;5055639;28;20225;-43
2022/11/15 00:54:20;;;;;;;34.15;19.00;;;;;;;;;;5055721;28;20453;-38
2022/11/15 00:56:45;;;;;;;31.83;19.13;;;;;;;;;;5055960;28;20039;-42
2022/11/15 00:59:11;;;;;;;33.90;18.02;;;;;;;;;;5055923;28;20029;-41
2022/11/15 01:01:36;;;;;;;29.65;18.08;;;;;;;;;;5055947;28;20514;-42
2022/11/15 01:04:01;;;;;;;27.75;16.95;;;;;;;;;;5055299;28;20029;-41
2022/11/15 01:06:27;;;;;;;30.92;17.85;;;;;;;;;;5054796;28;20044;-43
2022/11/15 01:08:52;;;;;;;32.38;16.17;;;;;;;;;;5054700;28;20036;-41
2022/11/15 01:11:17;;;;;;;29.15;17.60;;;;;;;;;;5054806;28;20040;-43
2022/11/15 01:13:43;;;;;;;27.67;16.88;;;;;;;;;;5055210;28;20445;-39
2022/11/15 01:16:10;;;;;;;32.15;18.33;;;;;;;;;;5054256;28;20064;-41
2022/11/15 01:18:35;;;;;;;31.17;17.42;;;;;;;;;;5055538;28;20025;-40
2022/11/15 01:21:04;;;;;;;31.15;18.67;;;;;;;;;;5054701;28;20024;-43
2022/11/15 01:23:29;;;;;;;33.58;18.70;;;;;;;;;;5054625;28;20032;-42
2022/11/15 01:25:58;;;;;;;32.40;18.95;;;;;;;;;;5054854;28;20025;-43
2022/11/15 01:28:23;;;;;;;35.78;19.38;;;;;;;;;;5054997;28;20025;-44
2022/11/15 01:30:48;;;;;;;33.37;18.70;;;;;;;;;;5055245;28;20036;-42
2022/11/15 01:33:14;;;;;;;40.22;20.88;;;;;;;;;;5053739;28;20333;-43
2022/11/15 01:35:40;;;;;;;31.80;18.02;;;;;;;;;;5054863;28;20013;-44
2022/11/15 01:38:05;;;;;;;36.08;18.90;;;;;;;;;;5054939;28;20051;-42
2022/11/15 01:40:30;;;;;;;30.92;17.75;;;;;;;;;;5055238;28;20024;-42
2022/11/15 01:42:55;;;;;;;36.63;20.65;;;;;;;;;;5055057;28;20037;-39
2022/11/15 01:45:36;;;;;;;32.08;18.42;;;;;;;;;;5054352;28;20136;-42
2022/11/15 01:48:01;;;;;;;33.58;18.77;;;;;;;;;;5054674;28;20037;-42
2022/11/15 01:50:30;;;;;;;35.33;19.45;;;;;;;;;;5054856;28;20473;-42
2022/11/15 01:52:55;;;;;;;30.80;17.90;;;;;;;;;;5054685;28;20025;-42
2022/11/15 01:55:22;;;;;;;34.65;20.60;;;;;;;;;;5054655;28;20164;-40
2022/11/15 01:57:49;;;;;;;34.35;18.63;;;;;;;;;;5053459;28;20052;-42
2022/11/15 02:00:15;;;;;;;37.05;21.13;;;;;;;;;;5054022;28;20017;-41
2022/11/15 02:02:40;;;;;;;31.88;19.25;;;;;;;;;;5054613;28;20040;-40
2022/11/15 02:05:06;;;;;;;36.13;19.55;;;;;;;;;;5054656;28;20025;-42
2022/11/15 02:07:32;;;;;;;32.42;17.23;;;;;;;;;;5054434;28;20052;-42
2022/11/15 02:10:04;;;;;;;29.77;17.77;;;;;;;;;;5054540;28;20108;-42
2022/11/15 02:12:29;;;;;;;31.20;19.05;;;;;;;;;;5054452;28;20040;-40
2022/11/15 02:14:55;;;;;;;30.48;18.00;;;;;;;;;;5054801;28;20380;-42
2022/11/15 02:17:20;;;;;;;31.05;17.20;;;;;;;;;;5053459;28;20021;-43
2022/11/15 02:19:48;;;;;;;26.90;16.47;;;;;;;;;;5054247;28;20547;-38
2022/11/15 02:22:14;;;;;;;31.02;17.08;;;;;;;;;;5054381;28;20705;-39
2022/11/15 02:24:58;;;;;;;26.73;15.63;;;;;;;;;;5052519;28;20036;-42
2022/11/15 02:27:32;;;;;;;30.73;17.95;;;;;;;;;;5053619;28;20258;-45
2022/11/15 02:30:04;;;;;;;27.65;17.13;;;;;;;;;;5053664;28;20082;-40
2022/11/15 02:32:32;;;;;;;26.65;16.27;;;;;;;;;;5052397;28;20027;-42
2022/11/15 02:35:17;;;;;;;27.10;16.35;;;;;;;;;;5054240;28;20025;-42
2022/11/15 02:37:56;;;;;;;26.23;15.98;;;;;;;;;;5053560;28;20033;-41
2022/11/15 02:40:21;;;;;;;25.98;15.27;;;;;;;;;;5054082;28;20419;-37
2022/11/15 02:45:38;;;;;;;24.88;15.00;;;;;;;;;;5053431;28;20064;-40
2022/11/15 02:48:05;;;;;;;27.83;16.10;;;;;;;;;;5052780;28;20061;-40
2022/11/15 02:50:31;;;;;;;24.15;14.15;;;;;;;;;;5053615;28;20067;-41
2022/11/15 02:52:56;;;;;;;27.20;14.70;;;;;;;;;;5053453;28;20097;-40
2022/11/15 02:55:32;;;;;;;26.35;15.93;;;;;;;;;;5053378;28;20017;-40
2022/11/15 02:58:16;;;;;;;24.80;15.27;;;;;;;;;;5053959;28;20488;-42
2022/11/15 03:01:01;;;;;;;24.33;15.27;;;;;;;;;;5053657;28;20057;-42
2022/11/15 03:03:48;;;;;;;26.23;14.75;;;;;;;;;;5052971;28;20106;-40
2022/11/15 03:06:20;;;;;;;28.95;15.73;;;;;;;;;;5053594;28;20530;-40
2022/11/15 03:08:53;;;;;;;28.50;15.73;;;;;;;;;;5052918;28;20017;-41
2022/11/15 03:11:19;;;;;;;27.52;15.95;;;;;;;;;;5051622;28;20074;-40
2022/11/15 03:14:03;;;;;;;25.05;14.18;;;;;;;;;;5071556;28;20491;-42
2022/11/15 03:16:39;;;;;;;26.95;15.13;;;;;;;;;;5072264;28;20020;-39
2022/11/15 03:19:13;;;;;;;26.20;16.98;;;;;;;;;;5071900;28;20388;-41
2022/11/15 03:21:40;;;;;;;28.38;16.05;;;;;;;;;;5072139;28;20446;-41
2022/11/15 03:24:06;;;;;;;26.13;15.60;;;;;;;;;;5071749;28;20029;-42
2022/11/15 03:26:32;;;;;;;26.58;15.50;;;;;;;;;;5071699;28;20025;-41
2022/11/15 03:29:04;;;;;;;27.27;15.65;;;;;;;;;;5072038;28;20016;-43
2022/11/15 03:31:46;;;;;;;29.08;16.35;;;;;;;;;;5071937;28;20029;-40
2022/11/15 03:34:15;;;;;;;27.52;16.45;;;;;;;;;;5071800;28;20077;-44
2022/11/15 03:36:40;;;;;;;26.80;15.23;;;;;;;;;;5071578;28;20020;-42
2022/11/15 03:39:07;;;;;;;28.80;15.77;;;;;;;;;;5071580;28;20522;-40
2022/11/15 03:41:39;;;;;;;31.15;17.35;;;;;;;;;;5071552;28;20384;-40
2022/11/15 03:44:09;;;;;;;28.75;17.25;;;;;;;;;;5072386;28;20032;-40
2022/11/15 03:46:51;;;;;;;31.48;16.77;;;;;;;;;;5071988;28;20495;-42
2022/11/15 03:49:25;;;;;;;29.48;16.80;;;;;;;;;;5052628;28;20043;-42
2022/11/15 03:51:50;;;;;;;28.42;16.77;;;;;;;;;;5053023;28;20067;-40
2022/11/15 03:54:16;;;;;;;34.42;17.40;;;;;;;;;;5053228;28;20029;-39
2022/11/15 03:56:41;;;;;;;30.60;15.90;;;;;;;;;;5053015;28;20088;-42
2022/11/15 03:59:06;;;;;;;29.35;16.45;;;;;;;;;;5052994;28;20357;-43
2022/11/15 04:01:31;;;;;;;31.02;17.58;;;;;;;;;;5052900;28;20048;-41
2022/11/15 04:03:56;;;;;;;30.65;16.70;;;;;;;;;;5052698;28;20033;-41
2022/11/15 04:06:22;;;;;;;30.95;16.90;;;;;;;;;;5052979;28;20017;-41
2022/11/15 04:08:47;;;;;;;35.47;18.65;;;;;;;;;;5052682;28;20024;-43
2022/11/15 04:11:12;;;;;;;32.42;18.10;;;;;;;;;;5052573;28;20021;-42
2022/11/15 04:13:37;;;;;;;34.75;17.90;;;;;;;;;;5052701;28;20017;-41
2022/11/15 04:16:03;;;;;;;32.13;17.60;;;;;;;;;;5051748;28;20017;-43
2022/11/15 04:18:28;;;;;;;31.63;17.33;;;;;;;;;;5051188;28;20089;-41
2022/11/15 04:24:11;;;;;;;35.60;18.02;;;;;;;;;;5052291;28;20391;-42
2022/11/15 04:26:32;;;;;;;35.22;19.20;;;;;;;;;;5052082;28;20025;-42
2022/11/15 04:31:41;;;;;;;40.10;18.60;;;;;;;;;;5052667;28;20114;-43
2022/11/15 04:34:06;;;;;;;34.83;19.52;;;;;;;;;;5052599;28;20464;-39
2022/11/15 04:39:15;;;;;;;39.20;20.00;;;;;;;;;;5053167;28;20063;-42
2022/11/15 04:41:40;;;;;;;39.78;19.73;;;;;;;;;;5055756;28;20056;-40
2022/11/15 04:44:05;;;;;;;38.70;20.95;;;;;;;;;;5055725;28;20029;-42
2022/11/15 04:46:32;;;;;;;36.65;19.10;;;;;;;;;;5055916;28;20495;-43
2022/11/15 04:48:57;;;;;;;39.25;21.23;;;;;;;;;;5056065;28;20024;-40
2022/11/15 04:51:23;;;;;;;37.45;19.95;;;;;;;;;;5055835;28;20017;-42
2022/11/15 04:53:48;;;;;;;37.42;20.33;;;;;;;;;;5054424;28;20017;-42
2022/11/15 04:56:13;;;;;;;37.90;19.52;;;;;;;;;;5055626;28;20021;-42
2022/11/15 04:58:38;;;;;;;43.47;20.70;;;;;;;;;;5055781;28;20021;-41
2022/11/15 05:01:07;;;;;;;37.83;20.77;;;;;;;;;;5051310;28;20033;-44
2022/11/15 05:06:16;;;;;;;36.05;20.75;;;;;;;;;;5055743;28;20431;-41
2022/11/15 05:08:41;;;;;;;38.53;20.88;;;;;;;;;;5054831;28;20017;-40
2022/11/15 05:11:07;;;;;;;38.95;20.73;;;;;;;;;;5055400;28;20453;-42
2022/11/15 05:13:32;;;;;;;36.53;20.17;;;;;;;;;;5055406;28;20392;-40
2022/11/15 05:15:57;;;;;;;40.95;22.25;;;;;;;;;;5055270;28;20384;-43
2022/11/15 05:18:22;;;;;;;42.30;21.40;;;;;;;;;;5055391;28;20029;-40
2022/11/15 05:20:47;;;;;;;38.00;21.17;;;;;;;;;;5055555;28;20306;-41
2022/11/15 05:23:13;;;;;;;38.92;20.75;;;;;;;;;;5055127;28;20029;-38
2022/11/15 05:25:38;;;;;;;43.15;22.08;;;;;;;;;;5055288;28;20456;-42
2022/11/15 05:28:03;;;;;;;46.42;22.88;;;;;;;;;;5055321;28;20068;-41
2022/11/15 05:30:29;;;;;;;40.38;20.55;;;;;;;;;;5055166;28;20020;-43
2022/11/15 05:32:55;;;;;;;47.42;22.05;;;;;;;;;;5055082;28;20028;-43
2022/11/15 05:35:29;;;;;;;48.47;23.30;;;;;;;;;;5054387;28;20025;-42
2022/11/15 05:37:54;;;;;;;46.08;23.48;;;;;;;;;;5054823;28;20400;-42
2022/11/15 05:40:19;;;;;;;44.20;22.85;;;;;;;;;;5055097;28;20021;-40
2022/11/15 05:42:45;;;;;;;44.80;22.65;;;;;;;;;;5054858;28;20449;-41
2022/11/15 05:45:11;;;;;;;49.00;23.38;;;;;;;;;;5054612;28;20067;-40
2022/11/15 05:47:37;;;;;;;46.78;21.73;;;;;;;;;;5054746;28;20035;-42
2022/11/15 05:50:03;;;;;;;49.55;25.02;;;;;;;;;;5061622;28;20095;-42
2022/11/15 05:52:30;;;;;;;46.97;23.02;;;;;;;;;;5053893;28;20182;-40
2022/11/15 05:54:56;;;;;;;42.70;22.27;;;;;;;;;;5053347;28;20025;-42
2022/11/15 05:57:21;;;;;;;53.17;25.85;;;;;;;;;;5054230;28;20021;-43
2022/11/15 05:59:46;;;;;;;48.75;23.60;;;;;;;;;;5054545;28;20435;-42
2022/11/15 06:02:12;;;;;;;44.63;22.73;;;;;;;;;;5054317;28;20055;-42
2022/11/15 06:04:37;;;;;;;49.45;24.52;;;;;;;;;;5053121;28;20045;-42
2022/11/15 06:07:02;;;;;;;51.78;25.60;;;;;;;;;;5053980;28;20024;-42
2022/11/15 06:09:27;;;;;;;58.05;26.50;;;;;;;;;;5053551;28;20021;-42
2022/11/15 06:11:53;;;;;;;50.08;25.05;;;;;;;;;;5053818;28;20029;-42
2022/11/15 06:14:18;;;;;;;54.58;27.55;;;;;;;;;;5053043;28;20025;-41
2022/11/15 06:16:43;;;;;;;53.45;25.30;;;;;;;;;;5053786;28;20021;-42
2022/11/15 06:19:09;;;;;;;48.88;24.33;;;;;;;;;;5054069;28;20468;-44
2022/11/15 06:21:34;;;;;;;52.55;25.40;;;;;;;;;;5053980;28;20020;-43
2022/11/15 06:23:59;;;;;;;47.08;23.60;;;;;;;;;;5053986;28;20033;-39
2022/11/15 06:26:24;;;;;;;49.25;24.55;;;;;;;;;;5054184;28;20056;-40
2022/11/15 06:28:50;;;;;;;48.22;23.88;;;;;;;;;;5054055;28;20025;-41
2022/11/15 06:31:15;;;;;;;50.15;24.33;;;;;;;;;;5054174;28;20021;-41
2022/11/15 06:33:40;;;;;;;50.60;22.70;;;;;;;;;;5053280;28;20023;-39
2022/11/15 06:36:07;;;;;;;51.42;22.77;;;;;;;;;;5053670;28;20492;-40
2022/11/15 06:38:32;;;;;;;60.78;24.98;;;;;;;;;;5053707;28;20435;-40
2022/11/15 06:41:01;;;;;;;52.50;24.85;;;;;;;;;;5053698;28;20017;-44
2022/11/15 06:43:27;;;;;;;;;;;;;;;;;;5056711;28;20037;-41
2022/11/15 06:45:52;;;;;;;56.90;24.40;;;;;;;;;;5057248;28;19923;-40
2022/11/15 06:48:17;;;;;;;61.07;27.67;;;;;;;;;;5064961;28;20028;-45
2022/11/15 06:50:42;;;;;;;55.78;24.73;;;;;;;;;;5056038;28;20249;-41
2022/11/15 06:53:07;;;;;;;60.47;25.58;;;;;;;;;;5060735;28;20017;-41
2022/11/15 06:55:33;;;;;;;59.40;25.77;;;;;;;;;;5058638;28;20051;-42
2022/11/15 06:57:58;;;;;;;55.65;27.30;;;;;;;;;;5066683;28;20020;-41
2022/11/15 07:00:23;;;;;;;57.90;25.80;;;;;;;;;;5064533;28;20142;-42
2022/11/15 07:02:49;;;;;;;50.83;25.77;;;;;;;;;;5056992;28;20461;-42
2022/11/15 07:05:14;;;;;;;57.28;26.27;;;;;;;;;;5052180;28;20029;-42
2022/11/15 07:07:40;;;;;;;55.67;25.00;;;;;;;;;;5052385;28;20017;-41
2022/11/15 07:10:06;;;;;;;51.00;24.90;;;;;;;;;;5051721;28;20079;-41
2022/11/15 07:12:31;;;;;;;56.47;26.00;;;;;;;;;;5062356;28;20021;-39
2022/11/15 07:14:56;;;;;;;54.58;24.73;;;;;;;;;;5056122;28;20017;-42
2022/11/15 07:17:22;;;;;;;55.50;24.45;;;;;;;;;;5059003;28;20530;-43
2022/11/15 07:19:47;;;;;;;56.47;26.20;;;;;;;;;;5053895;28;20045;-43
2022/11/15 07:22:12;;;;;;;56.40;25.05;;;;;;;;;;5065872;28;20056;-42
2022/11/15 07:24:38;;;;;;;52.33;25.60;;;;;;;;;;5051851;28;20085;-44
2022/11/15 07:27:03;;;;;;;63.35;29.98;;;;;;;;;;5054072;28;20025;-42
2022/11/15 07:29:28;;;;;;;59.65;28.45;;;;;;;;;;5063650;28;20021;-42
2022/11/15 07:31:53;;;;;;;57.80;27.85;;;;;;;;;;5063574;28;20033;-43
2022/11/15 07:34:19;;;;;;;59.28;26.98;;;;;;;;;;5059975;28;20029;-41
2022/11/15 07:36:44;;;;;;;56.85;26.00;;;;;;;;;;5063132;28;20483;-41
2022/11/15 07:39:11;;;;;;;53.75;26.08;;;;;;;;;;5058580;28;20029;-42
2022/11/15 07:41:38;;;;;;;51.97;25.63;;;;;;;;;;5064640;28;20033;-42
2022/11/15 07:44:03;;;;;;;55.85;25.40;;;;;;;;;;5058728;28;20087;-43
2022/11/15 07:46:29;;;;;;;52.35;25.00;;;;;;;;;;5049715;28;20484;-46
2022/11/15 07:48:54;;;;;;;49.20;24.98;;;;;;;;;;5064576;28;20094;-43
2022/11/15 07:51:19;;;;;;;54.33;27.70;;;;;;;;;;5060625;28;20021;-42
2022/11/15 07:53:45;;;;;;;54.40;26.83;;;;;;;;;;5061925;28;20035;-46
2022/11/15 07:56:10;;;;;;;53.50;26.35;;;;;;;;;;5059299;28;20048;-38
2022/11/15 07:58:36;;;;;;;48.28;24.98;;;;;;;;;;5058130;28;20765;-42
2022/11/15 08:01:05;;;;;;;57.08;27.35;;;;;;;;;;5054456;28;20039;-44
2022/11/15 08:03:31;;;;;;;50.88;25.70;;;;;;;;;;5057660;28;20431;-43
2022/11/15 08:05:56;;;;;;;48.63;25.38;;;;;;;;;;5043901;28;20037;-42
2022/11/15 08:08:22;;;;;;;48.25;25.17;;;;;;;;;;5051109;28;20017;-42
2022/11/15 08:10:47;;;;;;;56.42;25.73;;;;;;;;;;5059931;28;20047;-42
2022/11/15 08:13:13;;;;;;;47.97;24.33;;;;;;;;;;5062581;28;20077;-42
2022/11/15 08:15:38;;;;;;;53.05;25.83;;;;;;;;;;5059205;28;20029;-43
2022/11/15 08:18:05;;;;;;;52.97;25.58;;;;;;;;;;5061057;28;20471;-43
2022/11/15 08:20:30;;;;;;;54.10;25.80;;;;;;;;;;5062865;28;20039;-39
2022/11/15 08:22:59;;;;;;;49.85;24.58;;;;;;;;;;5082494;28;20546;-42
2022/11/15 08:25:28;;;;;;;40.80;20.23;;;;;;;;;;5072585;28;20028;-44
2022/11/15 08:27:54;;;;;;;43.60;22.02;;;;;;;;;;5079616;28;20025;-43
2022/11/15 08:30:20;;;;;;;48.45;24.20;;;;;;;;;;5054321;28;20056;-41
2022/11/15 08:32:45;;;;;;;51.30;25.30;;;;;;;;;;5054957;28;20091;-44
2022/11/15 08:35:11;;;;;;;41.22;23.60;;;;;;;;;;5070619;28;20030;-44
2022/11/15 08:37:36;;;;;;;39.92;21.73;;;;;;;;;;5054192;28;20042;-44
2022/11/15 08:40:01;;;;;;;50.45;22.80;;;;;;;;;;5070573;28;20024;-41
2022/11/15 08:42:27;;;;;;;40.92;22.45;;;;;;;;;;5068416;28;20017;-44
2022/11/15 08:44:52;;;;;;;42.35;22.58;;;;;;;;;;5070891;28;20032;-42
2022/11/15 08:47:17;;;;;;;47.05;25.17;;;;;;;;;;5063743;28;20055;-45
2022/11/15 08:49:43;;;;;;;42.00;21.73;;;;;;;;;;5055806;28;20067;-44
2022/11/15 08:52:08;;;;;;;43.47;22.02;;;;;;;;;;5064255;28;20036;-44
2022/11/15 08:54:34;;;;;;;48.17;22.23;;;;;;;;;;5065440;28;20060;-40
2022/11/15 08:56:59;;;;;;;41.90;22.73;;;;;;;;;;5058868;28;20024;-41
2022/11/15 08:59:24;;;;;;;43.85;23.20;;;;;;;;;;5061612;28;20017;-41
2022/11/15 09:01:50;;;;;;;46.05;23.17;;;;;;;;;;5071595;28;20017;-43
2022/11/15 09:04:15;;;;;;;45.60;25.38;;;;;;;;;;5060641;28;20040;-42
2022/11/15 09:06:40;;;;;;;40.13;21.88;;;;;;;;;;5058787;28;20029;-44
2022/11/15 09:09:06;;;;;;;44.38;22.77;;;;;;;;;;5056151;28;20109;-44
2022/11/15 09:11:31;;;;;;;40.42;21.83;;;;;;;;;;5066449;28;20020;-44
2022/11/15 09:13:56;;;;;;;41.10;23.30;;;;;;;;;;5058870;28;20482;-45
2022/11/15 09:16:22;;;;;;;44.30;25.20;;;;;;;;;;5078958;28;20032;-44
2022/11/15 09:18:47;;;;;;;39.10;22.70;;;;;;;;;;5058204;28;20099;-43
2022/11/15 09:21:12;;;;;;;41.95;23.77;;;;;;;;;;5071990;28;20027;-43
2022/11/15 09:23:38;;;;;;;38.47;22.30;;;;;;;;;;5066748;28;20029;-43
2022/11/15 09:26:04;;;;;;;39.63;22.20;;;;;;;;;;5062289;28;20054;-42
2022/11/15 09:28:30;;;;;;;43.65;22.27;;;;;;;;;;5074744;28;20017;-43
2022/11/15 09:30:59;;;;;;;46.72;24.15;;;;;;;;;;5062646;28;20027;-44
2022/11/15 09:33:24;;;;;;;43.67;22.95;;;;;;;;;;5061378;28;20098;-42
2022/11/15 09:35:50;;;;;;;40.83;21.27;;;;;;;;;;5065340;28;20052;-40
2022/11/15 09:38:15;;;;;;;40.92;21.80;;;;;;;;;;5057670;28;20114;-45
2022/11/15 09:40:41;;;;;;;40.72;22.33;;;;;;;;;;5055808;28;20020;-43
2022/11/15 09:43:15;;;;;;;41.60;23.80;;;;;;;;;;5067048;28;20761;-42
2022/11/15 09:46:00;;;;;;;41.40;22.60;;;;;;;;;;5063893;28;20068;-41
2022/11/15 09:48:26;;;;;;;41.45;22.08;;;;;;;;;;5056095;28;20454;-42
2022/11/15 09:50:53;;;;;;;43.03;25.20;;;;;;;;;;5066318;28;20111;-41
2022/11/15 09:53:30;;;;;;;47.50;26.05;;;;;;;;;;5071846;28;20363;-42
2022/11/15 09:56:00;;;;;;;51.40;24.50;;;;;;;;;;5072596;28;20028;-43
2022/11/15 09:58:37;;;;;;;48.00;25.58;;;;;;;;;;5060005;28;20037;-41
2022/11/15 10:01:06;;;;;;;47.47;24.92;;;;;;;;;;5061613;28;20024;-43
2022/11/15 10:03:37;;;;;;;50.30;25.52;;;;;;;;;;5062705;28;20037;-43
2022/11/15 10:06:04;;;;;;;51.65;28.73;;;;;;;;;;5069384;28;20036;-44
2022/11/15 10:08:44;;;;;;;45.40;25.10;;;;;;;;;;5080399;28;20020;-44
2022/11/15 10:11:10;;;;;;;51.08;27.40;;;;;;;;;;5070573;28;20025;-45
2022/11/15 10:13:39;;;;;;;49.53;26.35;;;;;;;;;;5061949;28;20028;-43
2022/11/15 10:16:31;;;;;;;53.05;26.80;;;;;;;;;;5064756;28;20107;-44
2022/11/15 10:19:02;;;;;;;55.20;28.52;;;;;;;;;;5060380;28;20040;-40
2022/11/15 10:21:48;;;;;;;56.28;28.27;;;;;;;;;;5051245;28;20048;-42
2022/11/15 10:24:18;;;;;;;60.67;31.85;;;;;;;;;;5047730;28;20055;-42
2022/11/15 10:26:46;;;;;;;66.47;32.08;;;;;;;;;;5056461;28;20042;-44
2022/11/15 10:29:11;;;;;;;48.85;28.02;;;;;;;;;;5057726;28;20590;-44
2022/11/15 10:31:40;;;;;;;50.15;27.20;;;;;;;;;;5052079;28;20112;-42
2022/11/15 10:34:15;;;;;;;49.28;26.92;;;;;;;;;;5054566;28;20032;-40
2022/11/15 10:36:44;;;;;;;53.33;27.40;;;;;;;;;;5059699;28;20049;-41
2022/11/15 10:39:11;;;;;;;55.60;29.02;;;;;;;;;;5054712;28;20034;-44
2022/11/15 10:41:38;;;;;;;52.75;27.98;;;;;;;;;;5062281;28;20249;-42
2022/11/15 10:44:24;;;;;;;55.08;28.45;;;;;;;;;;5072079;28;20105;-44
2022/11/15 10:46:55;;;;;;;54.67;28.20;;;;;;;;;;5049798;28;20045;-42
2022/11/15 10:49:20;;;;;;;54.55;26.30;;;;;;;;;;5063455;28;20016;-44
2022/11/15 10:51:46;;;;;;;49.53;27.00;;;;;;;;;;5053388;28;20051;-43
2022/11/15 10:54:12;;;;;;;64.95;32.80;;;;;;;;;;5063684;28;20048;-44
2022/11/15 10:56:38;;;;;;;61.03;30.75;;;;;;;;;;5065280;28;20028;-43
2022/11/15 10:59:04;;;;;;;61.78;31.45;;;;;;;;;;5062987;28;20023;-41
2022/11/15 11:01:29;;;;;;;61.17;32.28;;;;;;;;;;5056823;28;20456;-42
2022/11/15 11:04:03;;;;;;;63.50;33.35;;;;;;;;;;5055561;28;20472;-42
2022/11/15 11:06:29;;;;;;;68.13;34.25;;;;;;;;;;5057507;28;20392;-45
2022/11/15 11:08:54;;;;;;;75.53;38.13;;;;;;;;;;5056112;28;20023;-43
2022/11/15 11:11:19;;;;;;;70.10;37.85;;;;;;;;;;5069885;28;20108;-44
2022/11/15 11:13:45;;;;;;;73.88;37.70;;;;;;;;;;5049498;28;20835;-44
2022/11/15 11:16:13;;;;;;;76.50;38.13;;;;;;;;;;5062310;28;20069;-46
2022/11/15 11:18:47;;;;;;;74.30;37.08;;;;;;;;;;5057111;28;20021;-45
2022/11/15 11:21:14;;;;;;;66.78;34.88;;;;;;;;;;5056966;28;20024;-44
2022/11/15 11:23:46;;;;;;;69.90;37.95;;;;;;;;;;5064138;28;20055;-42
2022/11/15 11:26:37;;;;;;;75.32;39.78;;;;;;;;;;5070795;28;20016;-41
2022/11/15 11:29:12;;;;;;;76.15;41.53;;;;;;;;;;5062308;28;20045;-42
2022/11/15 11:31:52;;;;;;;74.03;37.55;;;;;;;;;;5052249;28;20040;-42
2022/11/15 11:34:46;;;;;;;73.57;36.35;;;;;;;;;;5055103;28;20039;-42
2022/11/15 11:37:14;;;;;;;76.47;37.45;;;;;;;;;;5053058;28;20123;-43
2022/11/15 11:40:02;;;;;;;79.57;40.65;;;;;;;;;;5061541;28;20150;-42
2022/11/15 11:42:57;;;;;;;86.25;40.15;;;;;;;;;;5050522;28;20444;-41
2022/11/15 11:45:43;;;;;;;87.53;40.22;;;;;;;;;;5054274;28;20061;-46
2022/11/15 11:48:13;;;;;;;86.22;41.53;;;;;;;;;;5053787;28;20056;-46
2022/11/15 11:50:40;;;;;;;81.57;38.95;;;;;;;;;;5060151;28;20070;-45
2022/11/15 11:53:12;;;;;;;86.70;42.53;;;;;;;;;;5064049;28;20460;-45
2022/11/15 11:55:45;;;;;;;85.90;41.25;;;;;;;;;;5064103;28;20388;-45
2022/11/15 11:58:10;;;;;;;87.93;44.22;;;;;;;;;;5063637;28;20029;-44
2022/11/15 12:00:39;;;;;;;81.95;40.70;;;;;;;;;;5055184;28;20032;-43
2022/11/15 12:03:07;;;;;;;84.43;41.83;;;;;;;;;;5060287;28;20872;-43
2022/11/15 12:05:37;;;;;;;79.00;39.30;;;;;;;;;;5060411;28;20025;-41
2022/11/15 12:08:08;;;;;;;83.45;40.88;;;;;;;;;;5058808;28;20103;-44
2022/11/15 12:10:35;;;;;;;86.18;42.53;;;;;;;;;;5057111;28;20232;-40
2022/11/15 12:13:06;;;;;;;82.82;40.53;;;;;;;;;;5055572;28;20078;-39
2022/11/15 12:15:35;;;;;;;82.55;39.92;;;;;;;;;;5055707;28;20040;-45
2022/11/15 12:18:01;;;;;;;90.38;40.40;;;;;;;;;;5061504;28;20400;-43
2022/11/15 12:20:29;;;;;;;84.20;41.75;;;;;;;;;;5061314;28;20465;-40
2022/11/15 12:23:13;;;;;;;87.35;43.55;;;;;;;;;;5053320;28;20020;-44
2022/11/15 12:25:38;;;;;;;78.40;39.20;;;;;;;;;;5054053;28;20025;-43
2022/11/15 12:28:37;;;;;;;89.28;42.72;;;;;;;;;;5060565;28;20024;-42
2022/11/15 12:31:16;;;;;;;85.47;41.42;;;;;;;;;;5054402;28;20028;-43
2022/11/15 12:33:43;;;;;;;86.53;41.60;;;;;;;;;;5050305;28;20036;-46
2022/11/15 12:36:08;;;;;;;85.57;41.53;;;;;;;;;;5057459;28;20797;-44
2022/11/15 12:38:53;;;;;;;88.40;40.67;;;;;;;;;;5056248;28;20036;-43
2022/11/15 12:41:19;;;;;;;84.60;41.70;;;;;;;;;;5057948;28;20029;-41
2022/11/15 12:43:45;;;;;;;81.45;39.05;;;;;;;;;;5061814;28;20045;-45
2022/11/15 12:46:13;;;;;;;101.45;48.40;;;;;;;;;;5058638;28;20419;-42
2022/11/15 12:48:38;;;;;;;93.97;45.03;;;;;;;;;;5058070;28;20377;-44
2022/11/15 12:51:03;;;;;;;84.50;42.15;;;;;;;;;;5057684;28;20016;-43
2022/11/15 12:53:30;;;;;;;94.47;43.47;;;;;;;;;;5061565;28;20020;-43
2022/11/15 12:56:17;;;;;;;83.22;40.28;;;;;;;;;;5056860;28;20020;-43
2022/11/15 12:58:45;;;;;;;81.53;39.97;;;;;;;;;;5060524;28;20036;-42
2022/11/15 13:01:33;;;;;;;84.00;40.58;;;;;;;;;;5068005;28;20021;-40
2022/11/15 13:04:17;;;;;;;86.40;40.83;;;;;;;;;;5058028;28;20060;-44
2022/11/15 13:06:47;;;;;;;89.95;38.97;;;;;;;;;;5058262;28;20025;-45
2022/11/15 13:09:30;;;;;;;85.32;41.00;;;;;;;;;;5054425;28;20325;-42
2022/11/15 13:11:57;;;;;;;85.82;41.22;;;;;;;;;;5067761;28;20055;-41
2022/11/15 13:14:40;;;;;;;90.18;43.30;;;;;;;;;;5056931;28;20167;-39
2022/11/15 13:17:24;;;;;;;75.30;36.58;;;;;;;;;;5060981;28;20041;-43
2022/11/15 13:19:52;;;;;;;78.68;38.10;;;;;;;;;;5058892;28;20032;-41
2022/11/15 13:25:02;;;;;;;93.78;42.72;;;;;;;;;;5053847;28;20396;-44
2022/11/15 13:27:28;;;;;;;82.50;40.85;;;;;;;;;;5053380;28;20025;-41
2022/11/15 13:29:53;;;;;;;98.43;43.25;;;;;;;;;;5070597;28;20021;-41
2022/11/15 13:32:19;;;;;;;91.47;44.53;;;;;;;;;;5069993;28;20376;-46
2022/11/15 13:34:46;;;;;;;96.25;44.78;;;;;;;;;;5067915;28;20153;-40
2022/11/15 13:37:21;;;;;;;88.80;43.53;;;;;;;;;;5064234;28;20529;-44
2022/11/15 13:39:47;;;;;;;94.30;43.03;;;;;;;;;;5053208;28;20071;-43
2022/11/15 13:42:16;;;;;;;84.28;41.05;;;;;;;;;;5055427;28;20467;-41
2022/11/15 13:44:54;;;;;;;86.00;42.35;;;;;;;;;;5056477;28;20029;-41
2022/11/15 13:47:20;;;;;;;91.95;44.05;;;;;;;;;;5067677;28;20499;-45
2022/11/15 13:49:46;;;;;;;95.35;43.92;;;;;;;;;;5052518;28;20055;-42
2022/11/15 13:52:14;;;;;;;88.93;41.60;;;;;;;;;;5054216;28;20060;-39
2022/11/15 13:54:40;;;;;;;90.18;41.20;;;;;;;;;;5053654;28;20059;-41
2022/11/15 13:57:18;;;;;;;93.30;44.17;;;;;;;;;;5052947;28;20060;-44
2022/11/15 13:59:46;;;;;;;82.45;40.78;;;;;;;;;;5053615;28;20043;-44
2022/11/15 14:02:16;;;;;;;99.47;45.45;;;;;;;;;;5055551;28;20021;-44
2022/11/15 14:04:50;;;;;;;121.18;52.72;;;;;;;;;;5054216;28;20045;-40
2022/11/15 14:07:17;;;;;;;100.05;45.85;;;;;;;;;;5062423;28;20522;-43
2022/11/15 14:09:45;;;;;;;95.38;43.22;;;;;;;;;;5072104;28;20024;-43
2022/11/15 14:12:29;;;;;;;93.03;43.80;;;;;;;;;;5064411;28;20372;-42
2022/11/15 14:14:55;;;;;;;121.07;49.88;;;;;;;;;;5053466;28;20116;-44
2022/11/15 14:17:32;;;;;;;103.78;45.42;;;;;;;;;;5060875;28;20103;-44
2022/11/15 14:19:58;;;;;;;92.45;42.60;;;;;;;;;;5054690;28;20083;-43
2022/11/15 14:22:32;;;;;;;95.70;44.38;;;;;;;;;;5063701;28;20024;-40
2022/11/15 14:25:23;;;;;;;96.60;43.80;;;;;;;;;;5052546;28;20120;-44
2022/11/15 14:28:07;;;;;;;102.68;45.47;;;;;;;;;;5050317;28;20046;-41
2022/11/15 14:30:32;;;;;;;114.28;47.63;;;;;;;;;;5052807;28;20025;-44
2022/11/15 14:32:58;;;;;;;117.70;51.85;;;;;;;;;;5052702;28;20080;-40
2022/11/15 14:35:23;;;;;;;117.82;49.97;;;;;;;;;;5062201;28;20031;-42
2022/11/15 14:37:49;;;;;;;100.78;48.47;;;;;;;;;;5057316;28;20403;-45
2022/11/15 14:40:16;;;;;;;101.85;47.00;;;;;;;;;;5057849;28;20048;-44